createdAt,value
2023-03-21T00:00:20.576Z,9.63
2023-03-21T00:02:46.980Z,9.63
2023-03-21T00:05:15.791Z,9.64
2023-03-21T00:07:42.586Z,9.58
2023-03-21T00:10:16.620Z,9.61
2023-03-21T00:12:44.653Z,9.61
2023-03-21T00:15:12.832Z,9.61
2023-03-21T00:17:39.758Z,9.66
2023-03-21T00:20:07.875Z,9.55
2023-03-21T00:22:35.675Z,9.57
2023-03-21T00:25:02.225Z,9.59
2023-03-21T00:27:47.557Z,9.60
2023-03-21T00:30:16.095Z,9.58
2023-03-21T00:32:55.142Z,9.57
2023-03-21T00:35:53.400Z,9.53
2023-03-21T00:38:09.451Z,9.56
2023-03-21T00:40:43.703Z,9.54
2023-03-21T00:43:19.152Z,9.53
2023-03-21T00:45:46.512Z,9.56
2023-03-21T00:48:13.572Z,9.61
2023-03-21T00:50:42.057Z,9.62
2023-03-21T00:53:08.787Z,9.58
2023-03-21T00:55:35.442Z,9.57
2023-03-21T00:58:02.728Z,9.55
2023-03-21T01:00:29.714Z,9.65
2023-03-21T01:03:02.883Z,9.60
2023-03-21T01:05:52.279Z,9.63
2023-03-21T01:08:27.979Z,9.57
2023-03-21T01:11:02.646Z,9.65
2023-03-21T01:13:29.013Z,9.69
2023-03-21T01:15:56.739Z,9.65
2023-03-21T01:18:27.211Z,9.66
2023-03-21T01:20:56.319Z,9.65
2023-03-21T01:23:26.169Z,9.69
2023-03-21T01:25:54.139Z,9.71
2023-03-21T01:28:20.822Z,9.68
2023-03-21T01:30:48.892Z,9.59
2023-03-21T01:33:16.170Z,9.49
2023-03-21T01:35:50.504Z,9.50
2023-03-21T01:38:22.194Z,9.55
2023-03-21T01:40:50.181Z,9.56
2023-03-21T01:43:29.548Z,9.48
2023-03-21T01:46:20.935Z,9.42
2023-03-21T01:49:12.854Z,9.42
2023-03-21T01:51:43.784Z,9.46
2023-03-21T01:54:15.166Z,9.43
2023-03-21T01:56:46.117Z,9.46
2023-03-21T01:59:24.738Z,9.43
2023-03-21T02:02:17.871Z,9.46
2023-03-21T02:04:58.127Z,9.47
2023-03-21T02:07:35.529Z,9.49
2023-03-21T02:10:09.827Z,9.54
2023-03-21T02:12:39.415Z,9.55
2023-03-21T02:15:08.894Z,9.51
2023-03-21T02:18:04.971Z,9.54
2023-03-21T02:21:02.446Z,9.53
2023-03-21T02:24:12.314Z,9.48
2023-03-21T02:27:04.755Z,9.54
2023-03-21T02:29:53.421Z,9.56
2023-03-21T02:32:37.683Z,9.56
2023-03-21T02:35:24.750Z,9.55
2023-03-21T02:38:14.436Z,9.51
2023-03-21T02:40:50.110Z,9.58
2023-03-21T02:43:27.287Z,9.49
2023-03-21T02:46:14.232Z,9.35
2023-03-21T02:48:59.815Z,9.30
2023-03-21T02:51:30.352Z,9.29
2023-03-21T02:54:26.531Z,9.28
2023-03-21T02:56:52.257Z,9.25
2023-03-21T02:59:21.121Z,9.18
2023-03-21T03:01:47.588Z,9.18
2023-03-21T03:04:22.487Z,9.18
2023-03-21T03:07:09.286Z,9.22
2023-03-21T03:09:55.587Z,9.21
2023-03-21T03:12:40.974Z,9.25
2023-03-21T03:15:21.862Z,9.22
2023-03-21T03:17:48.171Z,9.19
2023-03-21T03:20:28.837Z,9.25
2023-03-21T03:23:26.211Z,9.26
2023-03-21T03:26:01.809Z,9.24
2023-03-21T03:28:35.271Z,9.29
2023-03-21T03:31:12.686Z,9.30
2023-03-21T03:33:47.559Z,9.22
2023-03-21T03:36:33.374Z,9.22
2023-03-21T03:39:20.511Z,9.23
2023-03-21T03:42:27.230Z,9.27
2023-03-21T03:45:01.209Z,9.20
2023-03-21T03:47:55.974Z,9.18
2023-03-21T03:50:31.349Z,9.17
2023-03-21T03:53:18.040Z,9.20
2023-03-21T03:55:47.218Z,9.15
2023-03-21T03:58:23.796Z,9.09
2023-03-21T04:00:53.287Z,9.12
2023-03-21T04:03:20.940Z,9.08
2023-03-21T04:05:48.904Z,9.07
2023-03-21T04:08:16.265Z,9.05
2023-03-21T04:10:46.546Z,8.99
2023-03-21T04:13:13.316Z,9.00
2023-03-21T04:15:58.315Z,8.96
2023-03-21T04:18:24.722Z,9.00
2023-03-21T04:20:51.419Z,9.00
2023-03-21T04:23:20.099Z,9.00
2023-03-21T04:25:56.382Z,8.95
2023-03-21T04:28:29.423Z,9.01
2023-03-21T04:31:24.149Z,8.95
2023-03-21T04:33:55.818Z,8.99
2023-03-21T04:36:26.266Z,9.04
2023-03-21T04:38:57.073Z,9.02
2023-03-21T04:41:23.470Z,9.05
2023-03-21T04:43:49.861Z,9.01
2023-03-21T04:46:16.437Z,9.03
2023-03-21T04:48:42.871Z,9.05
2023-03-21T04:51:09.246Z,9.00
2023-03-21T04:53:38.297Z,9.04
2023-03-21T04:56:06.589Z,9.12
2023-03-21T04:58:33.751Z,9.07
2023-03-21T05:01:02.368Z,9.10
2023-03-21T05:03:29.865Z,9.10
2023-03-21T05:05:57.926Z,9.12
2023-03-21T05:08:24.253Z,9.12
2023-03-21T05:10:51.053Z,9.11
2023-03-21T05:13:17.553Z,9.11
2023-03-21T05:15:43.896Z,9.15
2023-03-21T05:18:10.991Z,9.19
2023-03-21T05:20:44.617Z,9.18
2023-03-21T05:23:11.735Z,9.22
2023-03-21T05:25:39.725Z,9.21
2023-03-21T05:28:12.063Z,9.24
2023-03-21T05:30:38.708Z,9.30
2023-03-21T05:33:06.496Z,9.27
2023-03-21T05:35:32.837Z,9.31
2023-03-21T05:38:04.210Z,9.34
2023-03-21T05:40:35.111Z,9.21
2023-03-21T05:43:02.970Z,9.23
2023-03-21T05:45:29.510Z,9.19
2023-03-21T05:47:55.933Z,9.15
2023-03-21T05:50:26.335Z,9.14
2023-03-21T05:53:15.831Z,9.14
2023-03-21T05:55:42.575Z,9.09
2023-03-21T05:58:14.599Z,9.09
2023-03-21T06:00:45.809Z,9.06
2023-03-21T06:03:20.934Z,9.01
2023-03-21T06:06:16.388Z,8.97
2023-03-21T06:08:52.783Z,8.91
2023-03-21T06:11:24.284Z,8.90
2023-03-21T06:13:54.114Z,8.90
2023-03-21T06:16:22.122Z,8.94
2023-03-21T06:18:48.878Z,8.89
2023-03-21T06:21:35.873Z,8.91
2023-03-21T06:24:03.491Z,8.87
2023-03-21T06:26:30.120Z,8.90
2023-03-21T06:28:57.384Z,8.89
2023-03-21T06:31:25.100Z,8.96
2023-03-21T06:33:53.616Z,8.99
2023-03-21T06:36:20.660Z,8.98
2023-03-21T06:38:48.597Z,8.97
2023-03-21T06:41:16.587Z,9.02
2023-03-21T06:43:50.911Z,9.01
2023-03-21T06:46:17.737Z,8.97
2023-03-21T06:48:44.453Z,9.06
2023-03-21T06:51:13.032Z,9.08
2023-03-21T06:53:45.766Z,9.11
2023-03-21T06:56:19.753Z,9.14
2023-03-21T06:58:46.523Z,9.14
2023-03-21T07:01:23.211Z,9.15
2023-03-21T07:03:58.253Z,9.14
2023-03-21T07:06:26.581Z,9.21
2023-03-21T07:08:54.876Z,9.22
2023-03-21T07:11:23.801Z,9.25
2023-03-21T07:13:51.056Z,9.26
2023-03-21T07:16:18.785Z,9.39
2023-03-21T07:18:45.437Z,9.38
2023-03-21T07:21:12.021Z,9.46
2023-03-21T07:23:41.279Z,9.47
2023-03-21T07:26:08.121Z,9.49
2023-03-21T07:28:34.739Z,9.50
2023-03-21T07:31:04.196Z,9.64
2023-03-21T07:33:31.441Z,9.62
2023-03-21T07:36:00.448Z,9.60
2023-03-21T07:38:27.429Z,9.66
2023-03-21T07:40:54.028Z,9.59
2023-03-21T07:43:20.602Z,9.57
2023-03-21T07:45:49.598Z,9.57
2023-03-21T07:48:17.831Z,9.63
2023-03-21T07:50:44.270Z,9.68
2023-03-21T07:53:10.656Z,9.67
2023-03-21T07:55:37.184Z,9.72
2023-03-21T07:58:04.229Z,9.75
2023-03-21T08:00:30.997Z,9.80
2023-03-21T08:02:59.119Z,9.86
2023-03-21T08:05:28.698Z,9.89
2023-03-21T08:07:55.717Z,9.84
2023-03-21T08:10:22.544Z,9.85
2023-03-21T08:12:49.854Z,9.86
2023-03-21T08:15:16.881Z,9.85
2023-03-21T08:17:45.368Z,9.90
2023-03-21T08:20:15.681Z,9.91
2023-03-21T08:22:43.145Z,9.92
2023-03-21T08:25:15.063Z,9.96
2023-03-21T08:27:43.202Z,10.08
2023-03-21T08:30:12.308Z,10.20
2023-03-21T08:32:40.168Z,10.17
2023-03-21T08:35:11.433Z,10.21
2023-03-21T08:37:39.226Z,10.22
2023-03-21T08:40:11.176Z,10.21
2023-03-21T08:42:38.258Z,10.18
2023-03-21T08:45:05.726Z,10.29
2023-03-21T08:47:32.380Z,10.29
2023-03-21T08:49:59.328Z,10.27
2023-03-21T08:52:27.096Z,10.30
2023-03-21T08:54:54.174Z,10.27
2023-03-21T08:57:20.499Z,10.26
2023-03-21T08:59:46.895Z,10.28
2023-03-21T09:02:15.603Z,10.32
2023-03-21T09:04:43.741Z,10.38
2023-03-21T09:07:12.360Z,10.31
2023-03-21T09:09:39.305Z,10.33
2023-03-21T09:12:05.906Z,10.41
2023-03-21T09:14:33.154Z,10.53
2023-03-21T09:16:59.481Z,10.51
2023-03-21T09:19:27.742Z,10.53
2023-03-21T09:21:55.549Z,10.52
2023-03-21T09:24:21.881Z,10.63
2023-03-21T09:26:50.782Z,10.52
2023-03-21T09:29:19.440Z,10.53
2023-03-21T09:31:46.985Z,10.57
2023-03-21T09:34:15.182Z,10.59
2023-03-21T09:36:44.075Z,10.59
2023-03-21T09:39:11.832Z,10.52
2023-03-21T09:42:23.074Z,10.39
2023-03-21T09:45:06.050Z,10.37
2023-03-21T09:47:53.112Z,10.33
2023-03-21T09:50:30.178Z,10.28
2023-03-21T09:53:00.211Z,10.26
2023-03-21T09:55:31.050Z,10.31
2023-03-21T09:58:24.376Z,10.33
2023-03-21T10:00:56.531Z,10.41
2023-03-21T10:03:26.174Z,10.42
2023-03-21T10:05:58.710Z,10.39
2023-03-21T10:08:31.018Z,10.54
2023-03-21T10:11:02.195Z,10.60
2023-03-21T10:13:56.641Z,10.73
2023-03-21T10:16:27.460Z,10.81
2023-03-21T10:18:55.128Z,10.75
2023-03-21T10:21:51.337Z,10.77
2023-03-21T10:24:26.360Z,10.84
2023-03-21T10:26:54.249Z,10.77
2023-03-21T10:29:26.176Z,10.86
2023-03-21T10:31:54.632Z,10.75
2023-03-21T10:34:32.836Z,10.79
2023-03-21T10:37:01.691Z,10.81
2023-03-21T10:39:35.595Z,10.82
2023-03-21T10:42:02.180Z,10.76
2023-03-21T10:44:31.011Z,10.81
2023-03-21T10:47:02.989Z,10.75
2023-03-21T10:49:40.193Z,10.80
2023-03-21T10:52:18.171Z,10.71
2023-03-21T10:54:45.102Z,10.61
2023-03-21T10:57:23.008Z,10.49
2023-03-21T11:00:00.882Z,10.40
2023-03-21T11:02:34.707Z,10.32
2023-03-21T11:05:07.516Z,10.40
2023-03-21T11:07:36.003Z,10.39
2023-03-21T11:10:17.169Z,10.44
2023-03-21T11:12:48.147Z,10.40
2023-03-21T11:15:37.726Z,10.53
2023-03-21T11:18:39.040Z,10.50
2023-03-21T11:21:08.486Z,10.52
2023-03-21T11:23:43.828Z,10.60
2023-03-21T11:26:16.512Z,10.72
2023-03-21T11:28:44.772Z,10.84
2023-03-21T11:31:11.727Z,10.91
2023-03-21T11:33:49.474Z,11.02
2023-03-21T11:36:18.973Z,11.15
2023-03-21T11:38:51.075Z,11.10
2023-03-21T11:41:47.340Z,11.14
2023-03-21T11:44:44.041Z,11.14
2023-03-21T11:47:11.226Z,11.19
2023-03-21T11:49:37.913Z,11.30
2023-03-21T11:52:25.633Z,11.43
2023-03-21T11:55:01.547Z,11.44
2023-03-21T11:57:37.110Z,11.63
2023-03-21T12:00:15.721Z,11.78
2023-03-21T12:03:06.400Z,11.83
2023-03-21T12:05:43.360Z,12.05
2023-03-21T12:08:12.646Z,12.05
2023-03-21T12:10:49.341Z,12.22
2023-03-21T12:13:44.696Z,12.33
2023-03-21T12:16:25.585Z,12.34
2023-03-21T12:19:22.761Z,12.41
2023-03-21T12:22:01.328Z,12.40
2023-03-21T12:24:45.939Z,12.35
2023-03-21T12:27:39.136Z,12.35
2023-03-21T12:30:36.860Z,12.34
2023-03-21T12:33:22.058Z,12.33
2023-03-21T12:35:55.020Z,12.34
2023-03-21T12:38:41.657Z,12.25
2023-03-21T12:41:30.488Z,12.32
2023-03-21T12:44:13.893Z,12.29
2023-03-21T12:46:48.745Z,12.23
2023-03-21T12:49:22.906Z,12.14
2023-03-21T12:51:54.633Z,12.08
2023-03-21T12:54:25.346Z,12.05
2023-03-21T12:57:02.059Z,11.82
2023-03-21T12:59:56.605Z,11.86
2023-03-21T13:02:32.788Z,11.83
2023-03-21T13:05:09.992Z,11.84
2023-03-21T13:07:41.945Z,11.84
2023-03-21T13:10:24.087Z,11.86
2023-03-21T13:13:13.355Z,11.84
2023-03-21T13:16:12.213Z,11.78
2023-03-21T13:19:19.775Z,11.82
2023-03-21T13:22:04.490Z,11.77
2023-03-21T13:24:48.047Z,11.90
2023-03-21T13:27:26.142Z,11.97
2023-03-21T13:30:00.894Z,11.99
2023-03-21T13:32:40.343Z,11.99
2023-03-21T13:35:12.501Z,11.98
2023-03-21T13:37:58.061Z,11.98
2023-03-21T13:40:49.549Z,11.83
2023-03-21T13:43:43.617Z,11.91
2023-03-21T13:46:14.463Z,11.84
2023-03-21T13:49:00.525Z,11.81
2023-03-21T13:51:35.976Z,11.94
2023-03-21T13:54:08.684Z,11.87
2023-03-21T13:56:46.997Z,11.95
2023-03-21T13:59:18.677Z,12.02
2023-03-21T14:01:58.764Z,11.99
2023-03-21T14:04:42.551Z,12.08
2023-03-21T14:07:42.018Z,11.97
2023-03-21T14:10:20.024Z,12.03
2023-03-21T14:12:47.415Z,11.97
2023-03-21T14:15:19.255Z,12.04
2023-03-21T14:18:10.959Z,12.10
2023-03-21T14:20:56.114Z,12.01
2023-03-21T14:23:23.091Z,12.05
2023-03-21T14:25:50.518Z,12.06
2023-03-21T14:28:23.738Z,12.09
2023-03-21T14:30:53.712Z,12.23
2023-03-21T14:33:36.187Z,12.40
2023-03-21T14:36:18.902Z,12.44
2023-03-21T14:38:55.325Z,12.55
2023-03-21T14:41:25.173Z,12.64
2023-03-21T14:44:35.926Z,12.71
2023-03-21T14:47:22.138Z,12.61
2023-03-21T14:49:49.620Z,12.73
2023-03-21T14:52:24.923Z,12.64
2023-03-21T14:54:52.548Z,12.62
2023-03-21T14:57:22.568Z,12.49
2023-03-21T14:59:54.016Z,12.38
2023-03-21T15:02:27.890Z,12.29
2023-03-21T15:04:58.001Z,12.23
2023-03-21T15:07:33.309Z,12.32
2023-03-21T15:10:08.330Z,12.30
2023-03-21T15:12:34.718Z,12.38
2023-03-21T15:15:02.238Z,12.41
2023-03-21T15:17:29.124Z,12.47
2023-03-21T15:19:55.477Z,12.53
2023-03-21T15:22:32.091Z,12.56
2023-03-21T15:25:03.058Z,12.66
2023-03-21T15:27:32.820Z,12.86
2023-03-21T15:29:59.335Z,12.89
2023-03-21T15:32:28.070Z,12.98
2023-03-21T15:35:03.388Z,13.24
2023-03-21T15:37:34.540Z,13.23
2023-03-21T15:40:21.434Z,13.39
2023-03-21T15:42:47.793Z,13.30
2023-03-21T15:45:24.636Z,13.14
2023-03-21T15:48:06.346Z,12.86
2023-03-21T15:50:37.435Z,12.71
2023-03-21T15:53:14.624Z,12.90
2023-03-21T15:55:52.024Z,12.97
2023-03-21T15:58:24.475Z,13.16
2023-03-21T16:00:55.853Z,13.30
2023-03-21T16:03:30.278Z,13.43
2023-03-21T16:06:12.408Z,13.35
2023-03-21T16:08:46.964Z,13.15
2023-03-21T16:11:22.386Z,12.93
2023-03-21T16:13:49.693Z,12.83
2023-03-21T16:16:21.784Z,12.71
2023-03-21T16:18:48.287Z,12.62
2023-03-21T16:21:17.246Z,12.47
2023-03-21T16:23:44.402Z,12.46
2023-03-21T16:26:13.813Z,12.53
2023-03-21T16:28:40.349Z,12.56
2023-03-21T16:31:08.997Z,12.60
2023-03-21T16:33:35.694Z,12.66
2023-03-21T16:36:02.653Z,12.67
2023-03-21T16:38:29.104Z,12.70
2023-03-21T16:40:55.595Z,12.64
2023-03-21T16:43:21.967Z,12.57
2023-03-21T16:45:48.416Z,12.39
2023-03-21T16:48:17.622Z,12.38
2023-03-21T16:50:47.669Z,12.41
2023-03-21T16:53:14.020Z,12.41
2023-03-21T16:55:40.915Z,12.40
2023-03-21T16:58:07.294Z,12.40
2023-03-21T17:00:34.036Z,12.42
2023-03-21T17:03:08.571Z,12.39
2023-03-21T17:05:35.138Z,12.35
2023-03-21T17:08:02.734Z,12.32
2023-03-21T17:12:57.773Z,12.37
2023-03-21T17:15:24.153Z,12.39
2023-03-21T17:17:50.506Z,12.34
2023-03-21T17:20:24.757Z,12.34
2023-03-21T17:22:51.407Z,12.29
2023-03-21T17:25:18.908Z,12.24
2023-03-21T17:27:45.659Z,12.28
2023-03-21T17:30:33.804Z,12.23
2023-03-21T17:33:00.297Z,12.24
2023-03-21T17:35:27.873Z,12.25
2023-03-21T17:37:58.059Z,12.20
2023-03-21T17:40:29.972Z,12.15
2023-03-21T17:42:57.324Z,12.13
2023-03-21T17:45:23.892Z,12.12
2023-03-21T17:47:51.235Z,12.13
2023-03-21T17:50:37.237Z,12.13
2023-03-21T17:53:04.068Z,12.12
2023-03-21T17:55:30.603Z,12.11
2023-03-21T17:57:57.043Z,12.07
2023-03-21T18:00:25.966Z,12.08
2023-03-21T18:02:53.049Z,12.07
2023-03-21T18:05:26.160Z,12.07
2023-03-21T18:08:11.219Z,12.07
2023-03-21T18:10:40.214Z,12.06
2023-03-21T18:13:06.898Z,12.02
2023-03-21T18:15:33.701Z,12.02
2023-03-21T18:18:00.100Z,11.98
2023-03-21T18:20:49.800Z,11.93
2023-03-21T18:23:14.828Z,11.88
2023-03-21T18:25:41.687Z,11.77
2023-03-21T18:28:11.799Z,11.88
2023-03-21T18:30:56.961Z,11.89
2023-03-21T18:33:27.108Z,11.88
2023-03-21T18:35:58.813Z,11.76
2023-03-21T18:38:26.315Z,11.76
2023-03-21T18:40:52.687Z,11.77
2023-03-21T18:46:06.216Z,11.73
2023-03-21T18:48:34.134Z,11.74
2023-03-21T18:51:00.924Z,11.68
2023-03-21T18:53:27.640Z,11.69
2023-03-21T18:55:54.230Z,11.73
2023-03-21T18:58:21.199Z,11.76
2023-03-21T19:00:49.018Z,11.70
2023-03-21T19:03:24.864Z,11.74
2023-03-21T19:06:00.746Z,11.68
2023-03-21T19:08:27.176Z,11.61
2023-03-21T19:10:53.823Z,11.54
2023-03-21T19:13:20.587Z,11.52
2023-03-21T19:15:49.594Z,11.42
2023-03-21T19:18:37.913Z,11.45
2023-03-21T19:21:03.401Z,11.43
2023-03-21T19:23:40.917Z,11.36
2023-03-21T19:26:16.200Z,11.33
2023-03-21T19:28:42.510Z,11.26
2023-03-21T19:31:08.868Z,11.26
2023-03-21T19:33:35.398Z,11.24
2023-03-21T19:36:15.320Z,11.26
2023-03-21T19:38:44.876Z,11.24
2023-03-21T19:41:11.233Z,11.19
2023-03-21T19:43:39.885Z,11.16
2023-03-21T19:46:06.941Z,11.21
2023-03-21T19:48:33.466Z,11.18
2023-03-21T19:51:36.392Z,11.16
2023-03-21T19:53:49.066Z,11.14
2023-03-21T19:56:22.459Z,11.20
2023-03-21T19:58:50.474Z,11.19
2023-03-21T20:01:17.089Z,11.20
2023-03-21T20:03:44.458Z,11.21
2023-03-21T20:06:11.543Z,11.11
2023-03-21T20:09:05.753Z,11.10
2023-03-21T20:11:24.170Z,11.08
2023-03-21T20:13:50.571Z,11.08
2023-03-21T20:16:18.296Z,11.04
2023-03-21T20:18:45.524Z,11.03
2023-03-21T20:21:17.535Z,11.07
2023-03-21T20:23:49.096Z,11.05
2023-03-21T20:26:16.183Z,11.04
2023-03-21T20:28:55.910Z,11.00
2023-03-21T20:31:26.205Z,10.91
2023-03-21T20:33:53.046Z,10.87
2023-03-21T20:36:38.585Z,10.88
2023-03-21T20:39:06.822Z,10.81
2023-03-21T20:41:33.181Z,10.73
2023-03-21T20:46:47.552Z,10.68
2023-03-21T20:49:15.199Z,10.63
2023-03-21T20:54:28.634Z,10.59
2023-03-21T20:56:55.214Z,10.53
2023-03-21T20:59:27.113Z,10.46
2023-03-21T21:01:57.696Z,10.43
2023-03-21T21:04:46.700Z,10.41
2023-03-21T21:07:15.846Z,10.43
2023-03-21T21:09:43.778Z,10.42
2023-03-21T21:12:11.520Z,10.38
2023-03-21T21:14:38.788Z,10.43
2023-03-21T21:17:23.846Z,10.42
2023-03-21T21:19:52.460Z,10.51
2023-03-21T21:22:18.957Z,10.54
2023-03-21T21:24:45.290Z,10.51
2023-03-21T21:27:11.891Z,10.53
2023-03-21T21:29:38.405Z,10.49
2023-03-21T21:32:05.155Z,10.49
2023-03-21T21:34:31.571Z,10.53
2023-03-21T21:36:57.965Z,10.52
2023-03-21T21:39:26.309Z,10.53
2023-03-21T21:41:53.832Z,10.56
2023-03-21T21:44:20.518Z,10.54
2023-03-21T21:46:47.109Z,10.51
2023-03-21T21:49:13.592Z,10.58
2023-03-21T21:51:41.705Z,10.61
2023-03-21T21:54:08.051Z,10.60
2023-03-21T21:56:36.381Z,10.61
2023-03-21T21:59:03.938Z,10.60
2023-03-21T22:01:34.436Z,10.59
2023-03-21T22:04:08.113Z,10.61
2023-03-21T22:06:34.770Z,10.62
2023-03-21T22:09:02.181Z,10.72
2023-03-21T22:11:28.505Z,10.72
2023-03-21T22:13:54.824Z,10.68
2023-03-21T22:16:21.489Z,10.63
2023-03-21T22:18:47.992Z,10.68
2023-03-21T22:21:14.447Z,10.66
2023-03-21T22:23:43.391Z,10.61
2023-03-21T22:26:10.428Z,10.65
2023-03-21T22:28:39.696Z,10.62
2023-03-21T22:31:09.446Z,10.65
2023-03-21T22:33:35.824Z,10.67
2023-03-21T22:36:02.302Z,10.70
2023-03-21T22:38:28.779Z,10.76
2023-03-21T22:40:59.694Z,10.75
2023-03-21T22:43:26.171Z,10.81
2023-03-21T22:45:52.980Z,10.82
2023-03-21T22:48:20.109Z,10.86
2023-03-21T22:50:46.892Z,10.83
2023-03-21T22:53:13.999Z,10.82
2023-03-21T22:55:40.405Z,10.85
2023-03-21T22:58:06.788Z,10.85
2023-03-21T23:00:33.397Z,11.00
2023-03-21T23:02:59.956Z,10.99
2023-03-21T23:05:26.604Z,11.03
2023-03-21T23:07:53.015Z,11.02
2023-03-21T23:10:19.597Z,11.12
2023-03-21T23:12:46.023Z,11.06
2023-03-21T23:15:12.442Z,11.05
2023-03-21T23:17:38.840Z,11.10
2023-03-21T23:20:07.761Z,11.12
2023-03-21T23:22:35.373Z,11.06
2023-03-21T23:25:02.090Z,11.07
2023-03-21T23:27:29.236Z,11.07
2023-03-21T23:29:56.796Z,11.08
2023-03-21T23:32:23.782Z,11.11
2023-03-21T23:34:50.145Z,11.06
2023-03-21T23:37:16.582Z,11.07
2023-03-21T23:39:45.031Z,11.00
2023-03-21T23:42:11.396Z,10.94
2023-03-21T23:44:37.852Z,10.91
2023-03-21T23:47:04.225Z,10.85
2023-03-21T23:49:33.501Z,10.88
2023-03-21T23:51:59.960Z,10.86
2023-03-21T23:54:26.472Z,10.90
2023-03-21T23:56:52.797Z,10.94
2023-03-21T23:59:19.127Z,10.98
